createdAt,value
2023-04-15T00:01:59.957Z,4.90
2023-04-15T00:07:00.772Z,5.03
2023-04-15T00:12:01.954Z,4.93
2023-04-15T00:17:04.393Z,4.40
2023-04-15T00:22:05.269Z,4.20
2023-04-15T00:27:06.060Z,3.67
2023-04-15T00:32:09.189Z,3.25
2023-04-15T00:37:10.218Z,3.35
2023-04-15T00:42:11.994Z,3.20
2023-04-15T00:47:15.684Z,2.55
2023-04-15T00:52:16.321Z,3.67
2023-04-15T00:57:17.382Z,3.20
2023-04-15T01:02:19.505Z,3.53
2023-04-15T01:07:20.360Z,3.10
2023-04-15T01:12:21.632Z,3.25
2023-04-15T01:17:24.518Z,3.45
2023-04-15T01:22:26.711Z,3.50
2023-04-15T01:27:28.913Z,2.92
2023-04-15T01:32:30.651Z,4.22
2023-04-15T01:37:32.059Z,4.00
2023-04-15T01:42:33.999Z,4.07
2023-04-15T01:47:34.783Z,4.15
2023-04-15T01:52:35.981Z,4.22
2023-04-15T01:57:38.076Z,4.45
2023-04-15T02:02:40.659Z,4.45
2023-04-15T02:07:41.657Z,4.47
2023-04-15T02:12:44.210Z,4.53
2023-04-15T02:17:50.793Z,4.22
2023-04-15T02:22:52.203Z,4.38
2023-04-15T02:27:54.201Z,5.00
2023-04-15T02:32:54.820Z,5.20
2023-04-15T02:37:58.804Z,4.45
2023-04-15T02:43:01.434Z,5.03
2023-04-15T02:48:06.163Z,4.72
2023-04-15T02:53:07.204Z,5.25
2023-04-15T02:58:09.129Z,4.93
2023-04-15T03:03:10.926Z,5.13
2023-04-15T03:08:11.710Z,4.60
2023-04-15T03:13:13.682Z,4.70
2023-04-15T03:18:14.494Z,4.75
2023-04-15T03:23:15.550Z,5.45
2023-04-15T03:28:17.590Z,5.32
2023-04-15T03:33:18.480Z,4.32
2023-04-15T03:38:19.352Z,5.05
2023-04-15T03:43:21.336Z,4.95
2023-04-15T03:48:22.006Z,5.05
2023-04-15T03:53:22.911Z,5.50
2023-04-15T03:58:25.031Z,6.20
2023-04-15T04:03:25.815Z,6.18
2023-04-15T04:08:27.540Z,5.72
2023-04-15T04:13:29.453Z,6.30
2023-04-15T04:18:30.023Z,6.53
2023-04-15T04:23:30.603Z,5.43
2023-04-15T04:28:32.524Z,6.38
2023-04-15T04:33:33.141Z,6.95
2023-04-15T04:38:34.164Z,7.07
2023-04-15T04:43:36.090Z,7.30
2023-04-15T04:48:36.897Z,7.68
2023-04-15T04:53:38.233Z,6.95
2023-04-15T04:58:40.172Z,7.18
2023-04-15T05:03:40.970Z,6.55
2023-04-15T05:08:41.961Z,6.18
2023-04-15T05:13:43.923Z,6.90
2023-04-15T05:18:44.535Z,6.75
2023-04-15T05:23:45.177Z,6.55
2023-04-15T05:28:47.877Z,6.45
2023-04-15T05:33:48.501Z,6.68
2023-04-15T05:38:49.113Z,6.53
2023-04-15T05:43:51.150Z,6.05
2023-04-15T05:48:52.201Z,5.82
2023-04-15T05:53:53.211Z,6.00
2023-04-15T05:58:55.137Z,4.00
2023-04-15T06:03:56.032Z,3.88
2023-04-15T06:08:57.407Z,2.75
2023-04-15T06:13:59.342Z,2.63
2023-04-15T06:19:00.068Z,2.53
2023-04-15T06:24:02.144Z,1.80
2023-04-15T06:29:04.295Z,2.13
2023-04-15T06:34:05.205Z,2.30
2023-04-15T06:39:05.798Z,2.35
2023-04-15T06:44:07.755Z,2.13
2023-04-15T06:49:08.538Z,1.27
2023-04-15T06:54:09.129Z,1.30
2023-04-15T06:59:11.106Z,1.30
2023-04-15T07:04:12.603Z,1.52
2023-04-15T07:09:13.590Z,0.90
2023-04-15T07:14:15.508Z,0.70
2023-04-15T07:19:16.147Z,0.70
2023-04-15T07:24:19.626Z,0.85
2023-04-15T07:29:21.606Z,0.70
2023-04-15T07:34:22.283Z,0.90
2023-04-15T07:39:23.292Z,0.90
2023-04-15T07:44:25.626Z,0.80
2023-04-15T07:49:26.209Z,0.85
2023-04-15T07:54:27.422Z,0.73
2023-04-15T07:59:33.364Z,0.75
2023-04-15T08:04:34.442Z,0.90
2023-04-15T08:09:35.643Z,1.00
2023-04-15T08:14:37.641Z,0.77
2023-04-15T08:19:38.317Z,0.80
2023-04-15T08:24:39.504Z,0.93
2023-04-15T08:29:43.584Z,0.93
2023-04-15T08:34:44.197Z,1.20
2023-04-15T08:39:45.398Z,1.17
2023-04-15T08:44:48.844Z,1.02
2023-04-15T08:49:53.908Z,1.17
2023-04-15T08:54:58.543Z,1.20
2023-04-15T09:00:03.974Z,1.77
2023-04-15T09:05:07.859Z,1.95
2023-04-15T09:10:09.860Z,2.28
2023-04-15T09:15:13.653Z,2.35
2023-04-15T09:20:15.933Z,2.80
2023-04-15T09:25:34.784Z,2.70
2023-04-15T09:30:36.990Z,3.03
2023-04-15T09:35:37.774Z,2.65
2023-04-15T09:40:41.311Z,2.60
2023-04-15T09:45:49.899Z,2.60
2023-04-15T09:50:53.583Z,2.88
2023-04-15T09:55:55.862Z,2.72
2023-04-15T10:00:59.010Z,2.63
2023-04-15T10:06:02.069Z,3.05
2023-04-15T10:11:03.490Z,2.83
2023-04-15T10:16:08.054Z,2.70
2023-04-15T10:21:09.981Z,2.80
2023-04-15T10:26:12.377Z,2.83
2023-04-15T10:31:15.878Z,2.88
2023-04-15T10:36:17.363Z,2.63
2023-04-15T10:41:21.625Z,2.97
2023-04-15T10:46:38.745Z,2.80
2023-04-15T10:51:42.435Z,3.45
2023-04-15T10:56:44.346Z,2.22
2023-04-15T11:01:56.770Z,2.67
2023-04-15T11:07:07.400Z,2.50
2023-04-15T11:12:09.701Z,2.40
2023-04-15T11:17:11.789Z,2.47
2023-04-15T11:22:13.007Z,2.10
2023-04-15T11:27:21.968Z,2.15
2023-04-15T11:32:24.036Z,2.00
2023-04-15T11:37:29.842Z,1.67
2023-04-15T11:42:42.829Z,1.42
2023-04-15T11:47:51.021Z,1.50
2023-04-15T11:52:55.141Z,1.20
2023-04-15T11:58:09.756Z,1.30
2023-04-15T12:03:19.616Z,1.38
2023-04-15T12:08:20.553Z,1.30
2023-04-15T12:13:21.147Z,1.27
2023-04-15T12:18:23.086Z,1.20
2023-04-15T12:23:23.712Z,1.23
2023-04-15T12:28:24.463Z,1.40
2023-04-15T12:33:34.138Z,1.50
2023-04-15T12:38:34.770Z,1.17
2023-04-15T12:43:35.392Z,1.08
2023-04-15T12:48:37.591Z,1.10
2023-04-15T12:53:38.315Z,1.20
2023-04-15T12:58:38.888Z,0.98
2023-04-15T13:03:41.039Z,1.38
2023-04-15T13:08:47.953Z,1.50
2023-04-15T13:13:56.947Z,1.20
2023-04-15T13:18:59.089Z,1.52
2023-04-15T13:24:00.485Z,1.30
2023-04-15T13:29:01.954Z,1.50
2023-04-15T13:34:04.243Z,1.92
2023-04-15T13:39:05.550Z,1.88
2023-04-15T13:44:06.512Z,1.73
2023-04-15T13:49:08.869Z,1.80
2023-04-15T13:54:09.816Z,1.83
2023-04-15T13:59:10.491Z,1.60
2023-04-15T14:04:12.637Z,1.58
2023-04-15T14:09:14.129Z,1.88
2023-04-15T14:14:16.258Z,1.88
2023-04-15T14:19:18.359Z,1.50
2023-04-15T14:24:18.924Z,1.40
2023-04-15T14:29:19.547Z,1.60
2023-04-15T14:34:22.245Z,1.48
2023-04-15T14:39:22.949Z,1.17
2023-04-15T14:44:24.082Z,1.17
2023-04-15T14:49:26.306Z,1.60
2023-04-15T14:54:26.947Z,1.35
2023-04-15T14:59:27.561Z,1.25
2023-04-15T15:04:32.998Z,1.20
2023-04-15T15:09:34.931Z,1.73
2023-04-15T15:14:35.663Z,1.33
2023-04-15T15:19:37.840Z,1.20
2023-04-15T15:24:38.468Z,1.30
2023-04-15T15:29:39.143Z,1.58
2023-04-15T15:34:41.265Z,1.50
2023-04-15T15:39:41.921Z,1.30
2023-04-15T15:44:42.569Z,1.30
2023-04-15T15:49:44.697Z,1.58
2023-04-15T15:54:45.313Z,1.35
2023-04-15T15:59:46.338Z,1.20
2023-04-15T16:04:50.148Z,1.17
2023-04-15T16:09:50.842Z,2.15
2023-04-15T16:14:51.913Z,1.20
2023-04-15T16:19:57.604Z,1.38
2023-04-15T16:25:02.034Z,1.25
2023-04-15T16:30:02.716Z,1.10
2023-04-15T16:35:05.421Z,1.08
2023-04-15T16:40:07.361Z,1.67
2023-04-15T16:45:08.567Z,1.35
2023-04-15T16:50:11.932Z,1.27
2023-04-15T16:55:12.658Z,1.10
2023-04-15T17:00:14.181Z,1.50
2023-04-15T17:05:16.207Z,0.90
2023-04-15T17:10:17.097Z,1.13
2023-04-15T17:15:17.926Z,1.25
2023-04-15T17:20:21.508Z,1.42
2023-04-15T17:25:22.149Z,1.27
2023-04-15T17:30:22.884Z,1.30
2023-04-15T17:35:26.158Z,1.85
2023-04-15T17:40:26.854Z,1.90
2023-04-15T17:45:27.520Z,1.67
2023-04-15T17:50:29.949Z,1.60
2023-04-15T17:55:30.721Z,1.50
2023-04-15T18:00:31.497Z,1.60
2023-04-15T18:05:33.822Z,1.60
2023-04-15T18:10:36.635Z,2.10
2023-04-15T18:15:37.418Z,2.80
2023-04-15T18:20:39.556Z,2.60
2023-04-15T18:25:43.242Z,3.08
2023-04-15T18:30:43.974Z,3.17
2023-04-15T18:35:47.188Z,3.90
2023-04-15T18:40:49.355Z,4.93
2023-04-15T18:45:50.071Z,5.00
2023-04-15T18:50:53.999Z,5.22
2023-04-15T18:55:56.269Z,5.63
2023-04-15T19:00:56.987Z,4.85
2023-04-15T19:05:58.949Z,6.20
2023-04-15T19:10:59.600Z,5.10
2023-04-15T19:16:00.172Z,5.63
2023-04-15T19:21:04.472Z,5.18
2023-04-15T19:26:05.306Z,4.63
2023-04-15T19:31:06.051Z,4.18
2023-04-15T19:36:08.697Z,4.75
2023-04-15T19:41:10.460Z,5.25
2023-04-15T19:46:13.254Z,5.82
2023-04-15T19:51:15.518Z,5.97
2023-04-15T19:56:16.509Z,6.68
2023-04-15T20:01:17.650Z,5.78
2023-04-15T20:06:19.650Z,6.20
2023-04-15T20:11:21.328Z,7.97
2023-04-15T20:16:22.101Z,7.32
2023-04-15T20:21:24.139Z,13.60
2023-04-15T20:26:25.120Z,12.18
2023-04-15T20:31:25.806Z,10.25
2023-04-15T20:36:39.134Z,9.60
2023-04-15T20:41:39.896Z,10.23
2023-04-15T20:46:40.561Z,9.98
2023-04-15T20:51:43.822Z,9.13
2023-04-15T20:56:44.489Z,8.00
2023-04-15T21:01:45.750Z,8.50
2023-04-15T21:06:48.268Z,7.72
2023-04-15T21:16:53.264Z,7.45
2023-04-15T21:21:55.199Z,7.18
2023-04-15T21:26:56.595Z,6.63
2023-04-15T21:31:59.859Z,6.75
2023-04-15T21:37:02.001Z,6.65
2023-04-15T21:42:02.837Z,7.07
2023-04-15T21:47:03.538Z,6.70
2023-04-15T21:52:06.240Z,6.18
2023-04-15T21:57:06.901Z,6.30
2023-04-15T22:02:07.611Z,6.22
2023-04-15T22:07:09.712Z,5.60
2023-04-15T22:12:11.444Z,6.20
2023-04-15T22:17:12.073Z,5.85
2023-04-15T22:22:14.042Z,5.55
2023-04-15T22:27:14.606Z,5.72
2023-04-15T22:32:15.286Z,5.45
2023-04-15T22:37:17.208Z,5.75
2023-04-15T22:42:17.820Z,5.15
2023-04-15T22:47:18.986Z,5.43
2023-04-15T22:52:30.168Z,6.57
2023-04-15T22:57:31.411Z,6.88
2023-04-15T23:02:32.258Z,7.15
2023-04-15T23:07:34.444Z,7.72
2023-04-15T23:12:35.042Z,6.90
2023-04-15T23:17:35.898Z,8.07
2023-04-15T23:22:38.381Z,8.32
2023-04-15T23:27:39.003Z,9.77
2023-04-15T23:32:39.819Z,10.52
2023-04-15T23:37:41.786Z,11.35
2023-04-15T23:42:42.419Z,9.70
2023-04-15T23:47:43.092Z,10.80
2023-04-15T23:52:45.125Z,10.57
2023-04-15T23:57:45.726Z,10.05
